Pride Of Rotterdam — PBAJ — position and weather

sailwx.info

Track history (hours):
 
Tides and Currents Weather Stations Pressure Air Temp Water Temp Dewpoint Dewpoint Depression Visibility Wind Speed Wind Dir Waves Ship Positions

Pride Of Rotterdam

Operator: P&O Ferries

Last reported at 2019-Nov-20 08:28 UTC. Time now 2019-Nov-20 09:44 UTC.
Position N 51°57' E 004°08'.

Length 214 m; draft 5.8 m.

Type: Ship. MMSI: 244980000.

Date/timePositionNaut miles runAvg speedWind from/ knotsBaromVisibWave heightAir tempDewpointWater temp
2019-Nov-20 08:28N 51°57' E 004°08'0 0.0
2019-Nov-20 07:30N 51°57' E 004°08'10 9.6
2019-Nov-20 06:30N 52°01' E 003°54'5317.4
2019-Nov-20 03:29N 52°28' E 002°40'1818.2
2019-Nov-20 02:30N 52°39' E 002°17'5819.2
2019-Nov-19 23:30N 53°08' E 000°54'4417.6
2019-Nov-19 21:00N 53°36' W 000°03'12 4.7
2019-Nov-19 18:28N 53°44' W 000°17'0 0.0
2019-Nov-19 17:58N 53°44' W 000°17'0 0.0
2019-Nov-19 16:30N 53°44' W 000°17'0 0.0
2019-Nov-19 14:30N 53°44' W 000°17'0 0.0
2019-Nov-19 13:29N 53°44' W 000°17'0 0.0
2019-Nov-19 10:58N 53°44' W 000°17'0 0.0
2019-Nov-19 09:00N 53°44' W 000°17'0 0.0
2019-Nov-19 07:00N 53°44' W 000°17'4013.7
2019-Nov-19 04:07N 53°25' E 000°41'3918.5
2019-Nov-19 02:00N 53°04' E 001°36'4618.3
2019-Nov-18 23:30N 52°35' E 002°35'2918.8
2019-Nov-18 21:59N 52°19' E 003°14'918.9
2019-Nov-18 21:30N 52°12' E 003°24'1918.9
2019-Nov-18 20:31N 52°03' E 003°51'918.0
2019-Nov-18 20:01N 51°59' E 004°04'3 6.7
2019-Nov-18 19:30N 51°57' E 004°08'0 0.0
2019-Nov-18 15:59N 51°57' E 004°08'0 0.0
2019-Nov-18 15:29N 51°57' E 004°08'0 0.0
2019-Nov-18 12:58N 51°57' E 004°08'0 0.0
2019-Nov-18 12:28N 51°57' E 004°08'0 0.0
2019-Nov-18 11:00N 51°57' E 004°08'0 0.0
2019-Nov-18 09:29N 51°57' E 004°08'26 6.6
2019-Nov-18 05:30N 52°08' E 003°29'917.0
2019-Nov-18 04:58N 52°13' E 003°17'2216.9
2019-Nov-18 03:39N 52°26' E 002°47'1117.1
2019-Nov-18 03:00N 52°32' E 002°32'1817.6
2019-Nov-18 02:00N 52°42' E 002°08'1717.3
2019-Nov-18 01:00N 52°51' E 001°43'2717.8
2019-Nov-17 23:30N 53°11' E 001°14'918.9
2019-Nov-17 23:00N 53°18' E 001°03'5217.3
2019-Nov-17 20:00N 53°42' W 000°14'3 1.3
2019-Nov-17 17:30N 53°44' W 000°17'0 0.0
2019-Nov-17 17:00N 53°44' W 000°17'0 0.0
2019-Nov-17 07:30N 53°44' W 000°17'4214.1
2019-Nov-17 04:31N 53°24' E 000°46'816.7
2019-Nov-17 04:01N 53°21' E 000°59'917.3
2019-Nov-17 03:31N 53°14' E 001°08'3417.1
2019-Nov-17 01:31N 52°50' E 001°49'6215.3
2019-Nov-16 21:28N 52°16' E 003°13'1515.9
2019-Nov-16 20:30N 52°08' E 003°34'1413.7
2019-Nov-16 19:30N 52°03' E 003°55'714.4
2019-Nov-16 19:00N 51°59' E 004°05'3 5.9
2019-Nov-16 18:28N 51°57' E 004°08'0 0.0
2019-Nov-16 17:30N 51°57' E 004°08'0 0.0
2019-Nov-16 17:00N 51°57' E 004°08'0 0.0
2019-Nov-16 16:00N 51°57' E 004°08'0 0.0
2019-Nov-16 15:27N 51°57' E 004°08'2 0.2
2019-Nov-16 07:30N 51°58' E 004°07'1616.4
2019-Nov-16 06:30N 52°03' E 003°41'5317.7
2019-Nov-16 03:30N 52°36' E 002°32'917.2
2019-Nov-16 03:00N 52°41' E 002°22'817.0
2019-Nov-16 02:31N 52°47' E 002°11'10616.2
2019-Nov-15 20:00N 53°44' W 000°17'0 0.0
2019-Nov-15 19:00N 53°44' W 000°17'0 0.0
2019-Nov-15 18:00N 53°44' W 000°17'0 0.0
2019-Nov-15 15:30N 53°44' W 000°17'0 0.0
2019-Nov-15 13:30N 53°44' W 000°17'0 0.0
2019-Nov-15 12:00N 53°44' W 000°17'0 0.0
2019-Nov-15 09:30N 53°44' W 000°17'0 0.0
2019-Nov-15 08:30N 53°44' W 000°17'0 0.0
2019-Nov-15 07:00N 53°44' W 000°17'3913.9
2019-Nov-15 04:11N 53°25' E 000°41'1116.9
2019-Nov-15 03:31N 53°20' E 000°58'6418.4
2019-Nov-15 00:01N 52°38' E 002°19'7817.3
2019-Nov-14 19:30N 51°57' E 004°08'1 1.3
2019-Nov-14 19:00N 51°57' E 004°08'0 0.0
2019-Nov-14 18:27N 51°57' E 004°08'0 0.0
2019-Nov-14 18:00N 51°57' E 004°08'0 0.0
2019-Nov-14 17:29N 51°57' E 004°08'0 0.0
2019-Nov-14 10:29N 51°57' E 004°08'11 2.7
2019-Nov-14 06:30N 52°01' E 003°52'4819.0
2019-Nov-14 03:59N 52°28' E 002°47'3618.1
2019-Nov-14 02:00N 52°52' E 002°03'4317.3
2019-Nov-13 23:30N 53°17' E 001°05'3517.3
2019-Nov-13 21:30N 53°33' E 000°12'1918.9
2019-Nov-13 20:30N 53°43' W 000°15'2 1.0
2019-Nov-13 18:28N 53°44' W 000°17'0 0.0
2019-Nov-13 18:00N 53°44' W 000°17'0 0.0
2019-Nov-13 15:59N 53°44' W 000°17'0 0.0
2019-Nov-13 14:29N 53°44' W 000°17'0 0.0
2019-Nov-13 13:59N 53°44' W 000°17'0 0.0
2019-Nov-13 12:28N 53°44' W 000°17'0 0.0
2019-Nov-13 11:31N 53°44' W 000°17'0 0.0
2019-Nov-13 10:00N 53°44' W 000°17'0 0.0
2019-Nov-13 09:30N 53°44' W 000°17'0 0.0
2019-Nov-13 08:29N 53°44' W 000°17'8 3.4
2019-Nov-13 06:00N 53°38' W 000°08'5417.9
2019-Nov-13 03:00N 53°12' E 001°12'918.6
2019-Nov-13 02:30N 53°05' E 001°20'1019.3
2019-Nov-13 02:00N 52°58' E 001°32'3919.5
2019-Nov-13 00:00N 52°36' E 002°25'918.1
2019-Nov-12 23:30N 52°31' E 002°38'2917.6
2019-Nov-12 21:53N 52°16' E 003°18'36 2.5
2019-Nov-12 07:30N 51°57' E 004°08'2013.1
2019-Nov-12 06:00N 52°05' E 003°39'4819.3
2019-Nov-12 03:30N 52°33' E 002°35'1919.1
2019-Nov-12 02:30N 52°46' E 002°12'1818.1
2019-Nov-12 01:30N 52°58' E 001°49'2718.0
2019-Nov-12 00:00N 53°14' E 001°13'4417.6
2019-Nov-11 21:30N 53°34' E 000°07'1019.8
2019-Nov-11 21:00N 53°38' W 000°08'8 3.3
2019-Nov-11 18:28N 53°44' W 000°17'0 0.0
2019-Nov-11 17:28N 53°44' W 000°17'0 0.0
2019-Nov-11 17:00N 53°44' W 000°17'0 0.0
2019-Nov-11 16:30N 53°44' W 000°17'0 0.0
2019-Nov-11 15:00N 53°44' W 000°17'0 0.0
2019-Nov-11 12:59N 53°44' W 000°17'0 0.0
2019-Nov-11 11:58N 53°44' W 000°17'0 0.0
2019-Nov-11 10:28N 53°44' W 000°17'0 0.0
2019-Nov-11 09:00N 53°44' W 000°17'7 2.3
2019-Nov-11 06:00N 53°39' W 000°10'815.8
2019-Nov-11 05:31N 53°35' E 000°02'3115.5
2019-Nov-11 03:31N 53°23' E 000°50'1615.6
2019-Nov-11 02:31N 53°14' E 001°10'917.1
2019-Nov-11 02:01N 53°07' E 001°20'1818.2
2019-Nov-11 01:01N 52°54' E 001°41'918.6
2019-Nov-11 00:31N 52°49' E 001°53'1818.3
2019-Nov-10 23:31N 52°39' E 002°19'1717.4
2019-Nov-10 22:30N 52°29' E 002°43'2617.2
2019-Nov-10 20:59N 52°14' E 003°18'3514.1
2019-Nov-10 18:29N 51°57' E 004°08'0 0.0
2019-Nov-10 15:58N 51°57' E 004°08'0 0.0
2019-Nov-10 08:58N 51°57' E 004°08'  
Track history (hours):
 
Tides and Currents Weather Stations Pressure Air Temp Water Temp Dewpoint Dewpoint Depression Visibility Wind Speed Wind Dir Waves Ship Positions

Pride Of Rotterdam

Operator: P&O Ferries

Last reported at 2019-Nov-20 08:28 UTC. Time now 2019-Nov-20 09:44 UTC.
Position N 51°57' E 004°08'.

Length 214 m; draft 5.8 m.

Type: Ship. MMSI: 244980000.

Date/timePositionNaut miles runAvg speedWind from/ knotsBaromVisibWave heightAir tempDewpointWater temp
2019-Nov-20 08:28N 51°57' E 004°08'0 0.0
2019-Nov-20 07:30N 51°57' E 004°08'10 9.6
2019-Nov-20 06:30N 52°01' E 003°54'5317.4
2019-Nov-20 03:29N 52°28' E 002°40'1818.2
2019-Nov-20 02:30N 52°39' E 002°17'5819.2
2019-Nov-19 23:30N 53°08' E 000°54'4417.6
2019-Nov-19 21:00N 53°36' W 000°03'12 4.7
2019-Nov-19 18:28N 53°44' W 000°17'0 0.0
2019-Nov-19 17:58N 53°44' W 000°17'0 0.0
2019-Nov-19 16:30N 53°44' W 000°17'0 0.0
2019-Nov-19 14:30N 53°44' W 000°17'0 0.0
2019-Nov-19 13:29N 53°44' W 000°17'0 0.0
2019-Nov-19 10:58N 53°44' W 000°17'0 0.0
2019-Nov-19 09:00N 53°44' W 000°17'0 0.0
2019-Nov-19 07:00N 53°44' W 000°17'4013.7
2019-Nov-19 04:07N 53°25' E 000°41'3918.5
2019-Nov-19 02:00N 53°04' E 001°36'4618.3
2019-Nov-18 23:30N 52°35' E 002°35'2918.8
2019-Nov-18 21:59N 52°19' E 003°14'918.9
2019-Nov-18 21:30N 52°12' E 003°24'1918.9
2019-Nov-18 20:31N 52°03' E 003°51'918.0
2019-Nov-18 20:01N 51°59' E 004°04'3 6.7
2019-Nov-18 19:30N 51°57' E 004°08'0 0.0
2019-Nov-18 15:59N 51°57' E 004°08'0 0.0
2019-Nov-18 15:29N 51°57' E 004°08'0 0.0
2019-Nov-18 12:58N 51°57' E 004°08'0 0.0
2019-Nov-18 12:28N 51°57' E 004°08'0 0.0
2019-Nov-18 11:00N 51°57' E 004°08'0 0.0
2019-Nov-18 09:29N 51°57' E 004°08'26 6.6
2019-Nov-18 05:30N 52°08' E 003°29'917.0
2019-Nov-18 04:58N 52°13' E 003°17'2216.9
2019-Nov-18 03:39N 52°26' E 002°47'1117.1
2019-Nov-18 03:00N 52°32' E 002°32'1817.6
2019-Nov-18 02:00N 52°42' E 002°08'1717.3
2019-Nov-18 01:00N 52°51' E 001°43'2717.8
2019-Nov-17 23:30N 53°11' E 001°14'918.9
2019-Nov-17 23:00N 53°18' E 001°03'5217.3
2019-Nov-17 20:00N 53°42' W 000°14'3 1.3
2019-Nov-17 17:30N 53°44' W 000°17'0 0.0
2019-Nov-17 17:00N 53°44' W 000°17'0 0.0
2019-Nov-17 07:30N 53°44' W 000°17'4214.1
2019-Nov-17 04:31N 53°24' E 000°46'816.7
2019-Nov-17 04:01N 53°21' E 000°59'917.3
2019-Nov-17 03:31N 53°14' E 001°08'3417.1
2019-Nov-17 01:31N 52°50' E 001°49'6215.3
2019-Nov-16 21:28N 52°16' E 003°13'1515.9
2019-Nov-16 20:30N 52°08' E 003°34'1413.7
2019-Nov-16 19:30N 52°03' E 003°55'714.4
2019-Nov-16 19:00N 51°59' E 004°05'3 5.9
2019-Nov-16 18:28N 51°57' E 004°08'0 0.0
2019-Nov-16 17:30N 51°57' E 004°08'0 0.0
2019-Nov-16 17:00N 51°57' E 004°08'0 0.0
2019-Nov-16 16:00N 51°57' E 004°08'0 0.0
2019-Nov-16 15:27N 51°57' E 004°08'2 0.2
2019-Nov-16 07:30N 51°58' E 004°07'1616.4
2019-Nov-16 06:30N 52°03' E 003°41'5317.7
2019-Nov-16 03:30N 52°36' E 002°32'917.2
2019-Nov-16 03:00N 52°41' E 002°22'817.0
2019-Nov-16 02:31N 52°47' E 002°11'10616.2
2019-Nov-15 20:00N 53°44' W 000°17'0 0.0
2019-Nov-15 19:00N 53°44' W 000°17'0 0.0
2019-Nov-15 18:00N 53°44' W 000°17'0 0.0
2019-Nov-15 15:30N 53°44' W 000°17'0 0.0
2019-Nov-15 13:30N 53°44' W 000°17'0 0.0
2019-Nov-15 12:00N 53°44' W 000°17'0 0.0
2019-Nov-15 09:30N 53°44' W 000°17'0 0.0
2019-Nov-15 08:30N 53°44' W 000°17'0 0.0
2019-Nov-15 07:00N 53°44' W 000°17'3913.9
2019-Nov-15 04:11N 53°25' E 000°41'1116.9
2019-Nov-15 03:31N 53°20' E 000°58'6418.4
2019-Nov-15 00:01N 52°38' E 002°19'7817.3
2019-Nov-14 19:30N 51°57' E 004°08'1 1.3
2019-Nov-14 19:00N 51°57' E 004°08'0 0.0
2019-Nov-14 18:27N 51°57' E 004°08'0 0.0
2019-Nov-14 18:00N 51°57' E 004°08'0 0.0
2019-Nov-14 17:29N 51°57' E 004°08'0 0.0
2019-Nov-14 10:29N 51°57' E 004°08'11 2.7
2019-Nov-14 06:30N 52°01' E 003°52'4819.0
2019-Nov-14 03:59N 52°28' E 002°47'3618.1
2019-Nov-14 02:00N 52°52' E 002°03'4317.3
2019-Nov-13 23:30N 53°17' E 001°05'3517.3
2019-Nov-13 21:30N 53°33' E 000°12'1918.9
2019-Nov-13 20:30N 53°43' W 000°15'2 1.0
2019-Nov-13 18:28N 53°44' W 000°17'0 0.0
2019-Nov-13 18:00N 53°44' W 000°17'0 0.0
2019-Nov-13 15:59N 53°44' W 000°17'0 0.0
2019-Nov-13 14:29N 53°44' W 000°17'0 0.0
2019-Nov-13 13:59N 53°44' W 000°17'0 0.0
2019-Nov-13 12:28N 53°44' W 000°17'0 0.0
2019-Nov-13 11:31N 53°44' W 000°17'0 0.0
2019-Nov-13 10:00N 53°44' W 000°17'0 0.0
2019-Nov-13 09:30N 53°44' W 000°17'0 0.0
2019-Nov-13 08:29N 53°44' W 000°17'8 3.4
2019-Nov-13 06:00N 53°38' W 000°08'5417.9
2019-Nov-13 03:00N 53°12' E 001°12'918.6
2019-Nov-13 02:30N 53°05' E 001°20'1019.3
2019-Nov-13 02:00N 52°58' E 001°32'3919.5
2019-Nov-13 00:00N 52°36' E 002°25'918.1
2019-Nov-12 23:30N 52°31' E 002°38'2917.6
2019-Nov-12 21:53N 52°16' E 003°18'36 2.5
2019-Nov-12 07:30N 51°57' E 004°08'2013.1
2019-Nov-12 06:00N 52°05' E 003°39'4819.3
2019-Nov-12 03:30N 52°33' E 002°35'1919.1
2019-Nov-12 02:30N 52°46' E 002°12'1818.1
2019-Nov-12 01:30N 52°58' E 001°49'2718.0
2019-Nov-12 00:00N 53°14' E 001°13'4417.6
2019-Nov-11 21:30N 53°34' E 000°07'1019.8
2019-Nov-11 21:00N 53°38' W 000°08'8 3.3
2019-Nov-11 18:28N 53°44' W 000°17'0 0.0
2019-Nov-11 17:28N 53°44' W 000°17'0 0.0
2019-Nov-11 17:00N 53°44' W 000°17'0 0.0
2019-Nov-11 16:30N 53°44' W 000°17'0 0.0
2019-Nov-11 15:00N 53°44' W 000°17'0 0.0
2019-Nov-11 12:59N 53°44' W 000°17'0 0.0
2019-Nov-11 11:58N 53°44' W 000°17'0 0.0
2019-Nov-11 10:28N 53°44' W 000°17'0 0.0
2019-Nov-11 09:00N 53°44' W 000°17'7 2.3
2019-Nov-11 06:00N 53°39' W 000°10'815.8
2019-Nov-11 05:31N 53°35' E 000°02'3115.5
2019-Nov-11 03:31N 53°23' E 000°50'1615.6
2019-Nov-11 02:31N 53°14' E 001°10'917.1
2019-Nov-11 02:01N 53°07' E 001°20'1818.2
2019-Nov-11 01:01N 52°54' E 001°41'918.6
2019-Nov-11 00:31N 52°49' E 001°53'1818.3
2019-Nov-10 23:31N 52°39' E 002°19'1717.4
2019-Nov-10 22:30N 52°29' E 002°43'2617.2
2019-Nov-10 20:59N 52°14' E 003°18'3514.1
2019-Nov-10 18:29N 51°57' E 004°08'0 0.0
2019-Nov-10 15:58N 51°57' E 004°08'0 0.0
2019-Nov-10 08:58N 51°57' E 004°08'  

Dump ship's entire track history